sensor_id;sensor_type;location;lat;lon;timestamp;pressure;altitude;pressure_sealevel;temperature;humidity
66945;BME280;53853;51.982;5.928;2022-08-11T00:00:02;102223.00;;;22.26;44.36
66945;BME280;53853;51.982;5.928;2022-08-11T00:02:36;102225.28;;;22.22;44.55
66945;BME280;53853;51.982;5.928;2022-08-11T00:05:09;102218.53;;;22.18;44.70
66945;BME280;53853;51.982;5.928;2022-08-11T00:07:45;102220.63;;;22.16;44.69
66945;BME280;53853;51.982;5.928;2022-08-11T00:10:17;102218.28;;;22.13;45.04
66945;BME280;53853;51.982;5.928;2022-08-11T00:12:52;102223.09;;;22.11;44.92
66945;BME280;53853;51.982;5.928;2022-08-11T00:15:26;102218.03;;;22.08;44.59
66945;BME280;53853;51.982;5.928;2022-08-11T00:17:57;102223.84;;;22.05;45.01
66945;BME280;53853;51.982;5.928;2022-08-11T00:20:30;102223.38;;;22.01;45.06
66945;BME280;53853;51.982;5.928;2022-08-11T00:23:03;102222.09;;;21.97;45.10
66945;BME280;53853;51.982;5.928;2022-08-11T00:25:38;102223.50;;;21.93;45.10
66945;BME280;53853;51.982;5.928;2022-08-11T00:28:25;102220.16;;;21.91;45.06
66945;BME280;53853;51.982;5.928;2022-08-11T00:31:00;102220.53;;;21.88;45.22
66945;BME280;53853;51.982;5.928;2022-08-11T00:33:34;102216.31;;;21.85;45.51
66945;BME280;53853;51.982;5.928;2022-08-11T00:36:07;102223.63;;;21.85;45.91
66945;BME280;53853;51.982;5.928;2022-08-11T00:38:40;102222.97;;;21.83;46.25
66945;BME280;53853;51.982;5.928;2022-08-11T00:41:28;102223.16;;;21.81;45.88
66945;BME280;53853;51.982;5.928;2022-08-11T00:47:09;102231.25;;;21.75;46.48
66945;BME280;53853;51.982;5.928;2022-08-11T00:49:51;102227.03;;;21.72;46.37
66945;BME280;53853;51.982;5.928;2022-08-11T00:52:35;102224.69;;;21.69;46.49
66945;BME280;53853;51.982;5.928;2022-08-11T00:55:30;102230.50;;;21.66;46.76
66945;BME280;53853;51.982;5.928;2022-08-11T00:58:31;102230.88;;;21.63;46.70
66945;BME280;53853;51.982;5.928;2022-08-11T01:01:19;102228.97;;;21.63;46.98
66945;BME280;53853;51.982;5.928;2022-08-11T01:04:35;102235.66;;;21.61;47.20
66945;BME280;53853;51.982;5.928;2022-08-11T01:10:48;102233.22;;;21.51;47.31
66945;BME280;53853;51.982;5.928;2022-08-11T01:13:44;102229.00;;;21.48;47.47
66945;BME280;53853;51.982;5.928;2022-08-11T01:20:12;102227.88;;;21.43;47.29
66945;BME280;53853;51.982;5.928;2022-08-11T01:23:15;102227.22;;;21.41;47.57
66945;BME280;53853;51.982;5.928;2022-08-11T01:29:23;102225.44;;;21.33;47.85
66945;BME280;53853;51.982;5.928;2022-08-11T01:35:19;102222.25;;;21.29;48.27
66945;BME280;53853;51.982;5.928;2022-08-11T01:44:47;102217.31;;;21.18;48.61
66945;BME280;53853;51.982;5.928;2022-08-11T01:47:25;102214.97;;;21.15;48.82
66945;BME280;53853;51.982;5.928;2022-08-11T01:50:20;102216.38;;;21.11;48.96
66945;BME280;53853;51.982;5.928;2022-08-11T01:53:10;102215.72;;;21.09;48.75
66945;BME280;53853;51.982;5.928;2022-08-11T01:55:51;102214.41;;;21.05;48.82
66945;BME280;53853;51.982;5.928;2022-08-11T01:58:30;102221.88;;;21.03;48.89
66945;BME280;53853;51.982;5.928;2022-08-11T02:01:14;102218.34;;;21.02;49.13
66945;BME280;53853;51.982;5.928;2022-08-11T02:03:53;102224.94;;;20.99;49.29
66945;BME280;53853;51.982;5.928;2022-08-11T02:06:33;102234.13;;;20.98;49.38
66945;BME280;53853;51.982;5.928;2022-08-11T02:09:32;102235.69;;;20.93;49.45
66945;BME280;53853;51.982;5.928;2022-08-11T02:12:14;102226.91;;;20.91;49.26
66945;BME280;53853;51.982;5.928;2022-08-11T02:14:48;102222.06;;;20.86;49.37
66945;BME280;53853;51.982;5.928;2022-08-11T02:17:40;102222.59;;;20.81;49.90
66945;BME280;53853;51.982;5.928;2022-08-11T02:20:18;102219.78;;;20.75;50.11
66945;BME280;53853;51.982;5.928;2022-08-11T02:23:16;102220.72;;;20.67;50.29
66945;BME280;53853;51.982;5.928;2022-08-11T02:26:04;102219.72;;;20.60;50.47
66945;BME280;53853;51.982;5.928;2022-08-11T02:28:53;102214.84;;;20.55;50.55
66945;BME280;53853;51.982;5.928;2022-08-11T02:31:32;102203.34;;;20.53;50.48
66945;BME280;53853;51.982;5.928;2022-08-11T02:34:24;102211.66;;;20.52;50.70
66945;BME280;53853;51.982;5.928;2022-08-11T02:37:02;102211.84;;;20.50;50.83
66945;BME280;53853;51.982;5.928;2022-08-11T02:39:51;102213.25;;;20.46;50.96
66945;BME280;53853;51.982;5.928;2022-08-11T02:42:29;102216.31;;;20.43;51.11
66945;BME280;53853;51.982;5.928;2022-08-11T02:45:33;102208.56;;;20.40;51.14
66945;BME280;53853;51.982;5.928;2022-08-11T02:48:23;102209.09;;;20.35;51.51
66945;BME280;53853;51.982;5.928;2022-08-11T02:51:18;102202.53;;;20.30;51.22
66945;BME280;53853;51.982;5.928;2022-08-11T02:54:00;102197.47;;;20.26;51.50
66945;BME280;53853;51.982;5.928;2022-08-11T02:56:40;102208.00;;;20.21;51.88
66945;BME280;53853;51.982;5.928;2022-08-11T02:59:28;102209.38;;;20.17;52.16
66945;BME280;53853;51.982;5.928;2022-08-11T03:02:23;102207.03;;;20.14;51.71
66945;BME280;53853;51.982;5.928;2022-08-11T03:05:13;102205.38;;;20.13;51.99
66945;BME280;53853;51.982;5.928;2022-08-11T03:07:58;102207.78;;;20.08;51.86
66945;BME280;53853;51.982;5.928;2022-08-11T03:10:35;102209.81;;;20.06;51.51
66945;BME280;53853;51.982;5.928;2022-08-11T03:13:18;102203.38;;;20.07;52.00
66945;BME280;53853;51.982;5.928;2022-08-11T03:16:18;102202.72;;;20.05;52.26
66945;BME280;53853;51.982;5.928;2022-08-11T03:19:07;102207.44;;;20.03;52.03
66945;BME280;53853;51.982;5.928;2022-08-11T03:21:45;102212.03;;;20.02;52.34
66945;BME280;53853;51.982;5.928;2022-08-11T03:24:23;102210.50;;;20.00;52.45
66945;BME280;53853;51.982;5.928;2022-08-11T03:27:02;102211.56;;;19.99;52.33
66945;BME280;53853;51.982;5.928;2022-08-11T03:29:46;102213.56;;;19.97;52.71
66945;BME280;53853;51.982;5.928;2022-08-11T03:32:23;102211.44;;;19.92;52.16
66945;BME280;53853;51.982;5.928;2022-08-11T03:34:57;102206.38;;;19.89;52.27
66945;BME280;53853;51.982;5.928;2022-08-11T03:37:45;102209.63;;;19.84;52.90
66945;BME280;53853;51.982;5.928;2022-08-11T03:40:53;102207.25;;;19.81;52.67
66945;BME280;53853;51.982;5.928;2022-08-11T03:43:51;102211.34;;;19.77;52.80
66945;BME280;53853;51.982;5.928;2022-08-11T03:46:35;102202.38;;;19.77;53.35
66945;BME280;53853;51.982;5.928;2022-08-11T03:49:24;102197.81;;;19.77;53.65
66945;BME280;53853;51.982;5.928;2022-08-11T03:52:04;102204.41;;;19.75;53.14
66945;BME280;53853;51.982;5.928;2022-08-11T03:54:44;102202.53;;;19.75;53.27
66945;BME280;53853;51.982;5.928;2022-08-11T03:57:44;102201.88;;;19.73;53.44
66945;BME280;53853;51.982;5.928;2022-08-11T04:03:47;102209.66;;;19.68;53.61
66945;BME280;53853;51.982;5.928;2022-08-11T04:06:49;102203.75;;;19.64;54.03
66945;BME280;53853;51.982;5.928;2022-08-11T04:09:46;102202.06;;;19.63;53.42
66945;BME280;53853;51.982;5.928;2022-08-11T04:12:45;102197.19;;;19.59;53.94
66945;BME280;53853;51.982;5.928;2022-08-11T04:18:59;102207.22;;;19.50;53.59
66945;BME280;53853;51.982;5.928;2022-08-11T04:25:05;102189.81;;;19.44;54.77
66945;BME280;53853;51.982;5.928;2022-08-11T04:28:04;102192.88;;;19.41;54.63
66945;BME280;53853;51.982;5.928;2022-08-11T04:30:49;102194.75;;;19.41;54.28
66945;BME280;53853;51.982;5.928;2022-08-11T04:33:51;102191.88;;;19.42;54.29
66945;BME280;53853;51.982;5.928;2022-08-11T04:46:19;102184.75;;;19.49;54.55
66945;BME280;53853;51.982;5.928;2022-08-11T04:52:33;102187.09;;;19.52;54.53
66945;BME280;53853;51.982;5.928;2022-08-11T04:55:38;102183.34;;;19.53;54.38
66945;BME280;53853;51.982;5.928;2022-08-11T04:58:30;102189.47;;;19.55;54.39
66945;BME280;53853;51.982;5.928;2022-08-11T05:01:23;102194.47;;;19.59;54.58
66945;BME280;53853;51.982;5.928;2022-08-11T05:04:31;102197.88;;;19.61;54.39
66945;BME280;53853;51.982;5.928;2022-08-11T05:07:49;102194.13;;;19.62;54.52
66945;BME280;53853;51.982;5.928;2022-08-11T05:10:42;102201.22;;;19.63;54.40
66945;BME280;53853;51.982;5.928;2022-08-11T05:13:26;102191.94;;;19.65;54.55
66945;BME280;53853;51.982;5.928;2022-08-11T05:16:10;102197.66;;;19.70;54.37
66945;BME280;53853;51.982;5.928;2022-08-11T05:18:55;102192.41;;;19.77;54.40
66945;BME280;53853;51.982;5.928;2022-08-11T05:21:40;102195.41;;;19.82;54.09
66945;BME280;53853;51.982;5.928;2022-08-11T05:24:30;102193.03;;;19.87;54.15
66945;BME280;53853;51.982;5.928;2022-08-11T05:27:16;102199.09;;;19.89;54.00
66945;BME280;53853;51.982;5.928;2022-08-11T05:30:03;102201.44;;;19.93;53.68
66945;BME280;53853;51.982;5.928;2022-08-11T05:32:56;102202.94;;;19.95;53.71
66945;BME280;53853;51.982;5.928;2022-08-11T05:35:42;102204.44;;;19.98;53.57
66945;BME280;53853;51.982;5.928;2022-08-11T05:38:17;102205.78;;;20.02;53.40
66945;BME280;53853;51.982;5.928;2022-08-11T05:41:05;102206.25;;;20.05;53.50
66945;BME280;53853;51.982;5.928;2022-08-11T05:43:48;102203.38;;;20.07;53.52
66945;BME280;53853;51.982;5.928;2022-08-11T05:46:38;102203.03;;;20.10;53.39
66945;BME280;53853;51.982;5.928;2022-08-11T05:49:23;102210.59;;;20.15;53.34
66945;BME280;53853;51.982;5.928;2022-08-11T05:52:05;102207.53;;;20.18;53.33
66945;BME280;53853;51.982;5.928;2022-08-11T05:55:01;102214.06;;;20.23;53.27
66945;BME280;53853;51.982;5.928;2022-08-11T05:57:47;102209.00;;;20.29;52.97
66945;BME280;53853;51.982;5.928;2022-08-11T06:00:18;102210.28;;;20.33;53.26
66945;BME280;53853;51.982;5.928;2022-08-11T06:02:52;102212.28;;;20.39;53.07
66945;BME280;53853;51.982;5.928;2022-08-11T06:05:33;102209.50;;;20.47;52.96
66945;BME280;53853;51.982;5.928;2022-08-11T06:08:04;102210.47;;;20.54;52.60
66945;BME280;53853;51.982;5.928;2022-08-11T06:10:37;102209.56;;;20.62;52.47
66945;BME280;53853;51.982;5.928;2022-08-11T06:13:15;102207.63;;;20.71;52.21
66945;BME280;53853;51.982;5.928;2022-08-11T06:15:47;102207.91;;;20.76;52.04
66945;BME280;53853;51.982;5.928;2022-08-11T06:18:18;102208.03;;;20.83;51.70
66945;BME280;53853;51.982;5.928;2022-08-11T06:23:21;102210.75;;;20.97;51.31
66945;BME280;53853;51.982;5.928;2022-08-11T06:25:53;102201.06;;;21.03;51.26
66945;BME280;53853;51.982;5.928;2022-08-11T06:28:33;102202.16;;;21.09;51.23
66945;BME280;53853;51.982;5.928;2022-08-11T06:31:12;102214.97;;;21.15;51.35
66945;BME280;53853;51.982;5.928;2022-08-11T06:33:53;102211.50;;;21.21;50.77
66945;BME280;53853;51.982;5.928;2022-08-11T06:36:29;102221.63;;;21.27;50.99
66945;BME280;53853;51.982;5.928;2022-08-11T06:39:11;102224.97;;;21.29;50.74
66945;BME280;53853;51.982;5.928;2022-08-11T06:41:47;102224.22;;;21.35;50.75
66945;BME280;53853;51.982;5.928;2022-08-11T06:44:26;102226.38;;;21.40;49.85
66945;BME280;53853;51.982;5.928;2022-08-11T06:47:06;102221.41;;;21.44;49.80
66945;BME280;53853;51.982;5.928;2022-08-11T06:49:38;102225.44;;;21.48;49.41
66945;BME280;53853;51.982;5.928;2022-08-11T06:52:30;102223.84;;;21.53;49.47
66945;BME280;53853;51.982;5.928;2022-08-11T06:55:05;102222.91;;;21.61;49.58
66945;BME280;53853;51.982;5.928;2022-08-11T06:57:38;102230.88;;;21.63;48.93
66945;BME280;53853;51.982;5.928;2022-08-11T07:00:24;102225.25;;;21.64;49.06
66945;BME280;53853;51.982;5.928;2022-08-11T07:03:02;102228.03;;;21.71;49.34
66945;BME280;53853;51.982;5.928;2022-08-11T07:05:43;102228.53;;;21.75;49.25
66945;BME280;53853;51.982;5.928;2022-08-11T07:08:43;102231.88;;;21.77;48.89
66945;BME280;53853;51.982;5.928;2022-08-11T07:14:56;102220.16;;;21.91;49.37
66945;BME280;53853;51.982;5.928;2022-08-11T07:17:49;102219.56;;;21.96;49.49
66945;BME280;53853;51.982;5.928;2022-08-11T07:20:41;102219.00;;;22.00;49.06
66945;BME280;53853;51.982;5.928;2022-08-11T07:23:25;102210.28;;;22.05;49.15
66945;BME280;53853;51.982;5.928;2022-08-11T07:26:10;102226.63;;;22.12;49.20
66945;BME280;53853;51.982;5.928;2022-08-11T07:28:54;102216.88;;;22.17;49.22
66945;BME280;53853;51.982;5.928;2022-08-11T07:31:30;102216.09;;;22.23;49.37
66945;BME280;53853;51.982;5.928;2022-08-11T07:34:11;102221.44;;;22.32;49.06
66945;BME280;53853;51.982;5.928;2022-08-11T07:36:48;102217.94;;;22.38;48.47
66945;BME280;53853;51.982;5.928;2022-08-11T07:39:20;102217.34;;;22.42;48.71
66945;BME280;53853;51.982;5.928;2022-08-11T07:41:52;102216.56;;;22.49;48.14
66945;BME280;53853;51.982;5.928;2022-08-11T07:44:23;102216.63;;;22.55;48.21
66945;BME280;53853;51.982;5.928;2022-08-11T07:46:55;102220.25;;;22.63;48.45
66945;BME280;53853;51.982;5.928;2022-08-11T07:49:44;102220.94;;;22.71;48.75
66945;BME280;53853;51.982;5.928;2022-08-11T07:52:29;102217.41;;;22.77;48.35
66945;BME280;53853;51.982;5.928;2022-08-11T07:55:01;102215.59;;;22.85;48.18
66945;BME280;53853;51.982;5.928;2022-08-11T07:57:32;102219.22;;;22.92;48.10
66945;BME280;53853;51.982;5.928;2022-08-11T08:00:15;102203.78;;;22.99;47.94
66945;BME280;53853;51.982;5.928;2022-08-11T08:02:59;102211.13;;;23.05;47.81
66945;BME280;53853;51.982;5.928;2022-08-11T08:05:45;102214.34;;;23.15;47.31
66945;BME280;53853;51.982;5.928;2022-08-11T08:08:28;102200.63;;;23.24;46.99
66945;BME280;53853;51.982;5.928;2022-08-11T08:11:11;102208.59;;;23.32;46.78
66945;BME280;53853;51.982;5.928;2022-08-11T08:13:54;102198.56;;;23.39;46.82
66945;BME280;53853;51.982;5.928;2022-08-11T08:16:36;102211.16;;;23.47;46.87
66945;BME280;53853;51.982;5.928;2022-08-11T08:19:20;102203.69;;;23.56;45.96
66945;BME280;53853;51.982;5.928;2022-08-11T08:21:54;102200.16;;;23.62;45.83
66945;BME280;53853;51.982;5.928;2022-08-11T08:24:25;102200.16;;;23.68;45.87
66945;BME280;53853;51.982;5.928;2022-08-11T08:26:56;102200.19;;;23.75;45.46
66945;BME280;53853;51.982;5.928;2022-08-11T08:29:30;102198.34;;;23.82;45.73
66945;BME280;53853;51.982;5.928;2022-08-11T08:32:14;102201.53;;;23.93;45.79
66945;BME280;53853;51.982;5.928;2022-08-11T08:34:45;102199.66;;;24.00;44.46
66945;BME280;53853;51.982;5.928;2022-08-11T08:37:22;102205.13;;;24.07;44.93
66945;BME280;53853;51.982;5.928;2022-08-11T08:39:54;102198.00;;;24.12;44.75
66945;BME280;53853;51.982;5.928;2022-08-11T08:42:27;102194.22;;;24.20;44.38
66945;BME280;53853;51.982;5.928;2022-08-11T08:45:02;102203.25;;;24.27;44.89
66945;BME280;53853;51.982;5.928;2022-08-11T08:47:36;102199.28;;;24.36;43.61
66945;BME280;53853;51.982;5.928;2022-08-11T08:50:08;102206.84;;;24.41;43.78
66945;BME280;53853;51.982;5.928;2022-08-11T08:52:52;102209.34;;;24.42;43.97
66945;BME280;53853;51.982;5.928;2022-08-11T08:55:23;102203.91;;;24.49;44.38
66945;BME280;53853;51.982;5.928;2022-08-11T08:57:56;102198.44;;;24.56;43.87
66945;BME280;53853;51.982;5.928;2022-08-11T09:00:37;102200.16;;;24.64;44.16
66945;BME280;53853;51.982;5.928;2022-08-11T09:03:08;102196.38;;;24.71;43.19
66945;BME280;53853;51.982;5.928;2022-08-11T09:05:38;102199.72;;;24.80;43.35
66945;BME280;53853;51.982;5.928;2022-08-11T09:08:12;102202.00;;;24.90;41.90
66945;BME280;53853;51.982;5.928;2022-08-11T09:10:42;102205.56;;;24.97;42.43
66945;BME280;53853;51.982;5.928;2022-08-11T09:13:14;102209.94;;;25.05;42.12
66945;BME280;53853;51.982;5.928;2022-08-11T09:15:45;102196.09;;;25.13;40.61
66945;BME280;53853;51.982;5.928;2022-08-11T09:18:17;102194.78;;;25.22;41.18
66945;BME280;53853;51.982;5.928;2022-08-11T09:20:47;102193.97;;;25.28;41.25
66945;BME280;53853;51.982;5.928;2022-08-11T09:23:20;102193.72;;;25.37;40.73
66945;BME280;53853;51.982;5.928;2022-08-11T09:26:03;102199.16;;;25.43;41.02
66945;BME280;53853;51.982;5.928;2022-08-11T09:28:58;102196.59;;;25.48;40.98
66945;BME280;53853;51.982;5.928;2022-08-11T09:31:31;102193.19;;;25.60;40.25
66945;BME280;53853;51.982;5.928;2022-08-11T09:34:02;102195.69;;;25.68;40.10
66945;BME280;53853;51.982;5.928;2022-08-11T09:36:32;102190.19;;;25.75;39.24
66945;BME280;53853;51.982;5.928;2022-08-11T09:39:18;102194.34;;;25.84;39.23
66945;BME280;53853;51.982;5.928;2022-08-11T09:42:01;102179.16;;;25.88;39.57
66945;BME280;53853;51.982;5.928;2022-08-11T09:44:33;102184.38;;;25.96;39.71
66945;BME280;53853;51.982;5.928;2022-08-11T09:47:21;102180.56;;;26.04;38.76
66945;BME280;53853;51.982;5.928;2022-08-11T09:49:54;102178.63;;;26.11;37.51
66945;BME280;53853;51.982;5.928;2022-08-11T09:52:25;102176.44;;;26.20;38.06
66945;BME280;53853;51.982;5.928;2022-08-11T09:54:58;102173.28;;;26.23;38.49
66945;BME280;53853;51.982;5.928;2022-08-11T09:57:29;102173.84;;;26.32;37.92
66945;BME280;53853;51.982;5.928;2022-08-11T10:00:29;102171.28;;;26.37;36.45
66945;BME280;53853;51.982;5.928;2022-08-11T10:03:04;102170.78;;;26.47;35.63
66945;BME280;53853;51.982;5.928;2022-08-11T10:05:37;102157.03;;;26.53;36.21
66945;BME280;53853;51.982;5.928;2022-08-11T10:08:22;102171.94;;;26.57;36.04
66945;BME280;53853;51.982;5.928;2022-08-11T10:10:58;102157.19;;;26.65;36.53
66945;BME280;53853;51.982;5.928;2022-08-11T10:13:31;102159.00;;;26.71;35.30
66945;BME280;53853;51.982;5.928;2022-08-11T10:16:25;102163.34;;;26.79;35.33
66945;BME280;53853;51.982;5.928;2022-08-11T10:18:54;102158.03;;;26.84;34.94
66945;BME280;53853;51.982;5.928;2022-08-11T10:21:29;102157.34;;;26.89;34.33
66945;BME280;53853;51.982;5.928;2022-08-11T10:24:03;102153.09;;;26.93;34.59
66945;BME280;53853;51.982;5.928;2022-08-11T10:26:51;102156.00;;;26.98;34.65
66945;BME280;53853;51.982;5.928;2022-08-11T10:29:27;102152.13;;;27.06;34.21
66945;BME280;53853;51.982;5.928;2022-08-11T10:32:11;102154.31;;;27.16;34.02
66945;BME280;53853;51.982;5.928;2022-08-11T10:34:54;102150.34;;;27.30;32.93
66945;BME280;53853;51.982;5.928;2022-08-11T10:37:25;102149.28;;;27.31;32.52
66945;BME280;53853;51.982;5.928;2022-08-11T10:40:00;102145.03;;;27.35;33.61
66945;BME280;53853;51.982;5.928;2022-08-11T10:42:34;102147.09;;;27.40;33.44
66945;BME280;53853;51.982;5.928;2022-08-11T10:45:18;102145.34;;;27.45;33.51
66945;BME280;53853;51.982;5.928;2022-08-11T10:48:00;102148.81;;;27.53;33.02
66945;BME280;53853;51.982;5.928;2022-08-11T10:50:32;102155.63;;;27.62;32.40
66945;BME280;53853;51.982;5.928;2022-08-11T10:53:15;102134.44;;;27.69;31.90
66945;BME280;53853;51.982;5.928;2022-08-11T10:55:59;102140.69;;;27.76;32.83
66945;BME280;53853;51.982;5.928;2022-08-11T10:58:44;102132.00;;;27.79;32.05
66945;BME280;53853;51.982;5.928;2022-08-11T11:01:23;102125.22;;;27.82;32.82
66945;BME280;53853;51.982;5.928;2022-08-11T11:03:57;102124.00;;;27.90;32.32
66945;BME280;53853;51.982;5.928;2022-08-11T11:06:31;102125.84;;;27.96;32.03
66945;BME280;53853;51.982;5.928;2022-08-11T11:09:05;102123.25;;;28.01;31.82
66945;BME280;53853;51.982;5.928;2022-08-11T11:11:38;102117.28;;;28.04;31.12
66945;BME280;53853;51.982;5.928;2022-08-11T11:14:29;102121.97;;;28.15;31.41
66945;BME280;53853;51.982;5.928;2022-08-11T11:17:12;102129.22;;;28.22;30.64
66945;BME280;53853;51.982;5.928;2022-08-11T11:19:58;102115.66;;;28.27;30.38
66945;BME280;53853;51.982;5.928;2022-08-11T11:22:30;102110.75;;;28.29;29.50
66945;BME280;53853;51.982;5.928;2022-08-11T11:25:21;102113.03;;;28.32;30.02
66945;BME280;53853;51.982;5.928;2022-08-11T11:30:59;102095.50;;;28.45;29.79
66945;BME280;53853;51.982;5.928;2022-08-11T11:33:45;102101.31;;;28.48;28.69
66945;BME280;53853;51.982;5.928;2022-08-11T11:36:26;102105.03;;;28.54;28.46
66945;BME280;53853;51.982;5.928;2022-08-11T11:38:57;102106.72;;;28.55;29.03
66945;BME280;53853;51.982;5.928;2022-08-11T11:41:28;102099.94;;;28.58;29.67
66945;BME280;53853;51.982;5.928;2022-08-11T11:43:58;102098.84;;;28.59;29.37
66945;BME280;53853;51.982;5.928;2022-08-11T11:46:31;102095.63;;;28.62;28.52
66945;BME280;53853;51.982;5.928;2022-08-11T11:49:01;102089.66;;;28.65;28.37
66945;BME280;53853;51.982;5.928;2022-08-11T11:51:36;102100.03;;;28.63;28.17
66945;BME280;53853;51.982;5.928;2022-08-11T11:54:07;102086.69;;;28.66;27.88
66945;BME280;53853;51.982;5.928;2022-08-11T11:56:38;102085.47;;;28.74;26.82
66945;BME280;53853;51.982;5.928;2022-08-11T11:59:08;102081.38;;;28.88;27.12
66945;BME280;53853;51.982;5.928;2022-08-11T12:01:55;102081.00;;;28.97;26.53
66945;BME280;53853;51.982;5.928;2022-08-11T12:04:26;102076.34;;;28.97;27.28
66945;BME280;53853;51.982;5.928;2022-08-11T12:06:57;102079.41;;;29.01;27.41
66945;BME280;53853;51.982;5.928;2022-08-11T12:09:40;102080.28;;;29.01;27.44
66945;BME280;53853;51.982;5.928;2022-08-11T12:12:10;102071.31;;;29.06;27.61
66945;BME280;53853;51.982;5.928;2022-08-11T12:14:53;102082.88;;;29.08;27.25
66945;BME280;53853;51.982;5.928;2022-08-11T12:17:26;102078.81;;;29.11;26.84
66945;BME280;53853;51.982;5.928;2022-08-11T12:19:55;102073.66;;;29.14;26.93
66945;BME280;53853;51.982;5.928;2022-08-11T12:22:26;102068.38;;;29.24;26.60
66945;BME280;53853;51.982;5.928;2022-08-11T12:25:08;102073.38;;;29.27;26.25
66945;BME280;53853;51.982;5.928;2022-08-11T12:27:53;102055.84;;;29.29;26.66
66945;BME280;53853;51.982;5.928;2022-08-11T12:30:23;102058.09;;;29.32;26.00
66945;BME280;53853;51.982;5.928;2022-08-11T12:32:56;102055.34;;;29.32;24.98
66945;BME280;53853;51.982;5.928;2022-08-11T12:35:26;102045.75;;;29.34;24.87
66945;BME280;53853;51.982;5.928;2022-08-11T12:37:57;102050.19;;;29.35;25.23
66945;BME280;53853;51.982;5.928;2022-08-11T12:40:28;102045.28;;;29.37;24.55
66945;BME280;53853;51.982;5.928;2022-08-11T12:43:13;102047.78;;;29.39;24.83
66945;BME280;53853;51.982;5.928;2022-08-11T12:45:59;102042.28;;;29.39;24.99
66945;BME280;53853;51.982;5.928;2022-08-11T12:48:35;102046.72;;;29.40;25.55
66945;BME280;53853;51.982;5.928;2022-08-11T12:51:22;102033.78;;;29.40;25.60
66945;BME280;53853;51.982;5.928;2022-08-11T12:54:11;102037.16;;;29.42;26.13
66945;BME280;53853;51.982;5.928;2022-08-11T12:56:45;102029.16;;;29.41;25.79
66945;BME280;53853;51.982;5.928;2022-08-11T12:59:30;102017.56;;;29.39;25.53
66945;BME280;53853;51.982;5.928;2022-08-11T13:02:17;102020.56;;;29.37;25.49
66945;BME280;53853;51.982;5.928;2022-08-11T13:05:05;102023.91;;;29.39;25.39
66945;BME280;53853;51.982;5.928;2022-08-11T13:07:37;102022.94;;;29.45;25.65
66945;BME280;53853;51.982;5.928;2022-08-11T13:10:10;102023.56;;;29.53;25.16
66945;BME280;53853;51.982;5.928;2022-08-11T13:12:42;102001.34;;;29.54;24.20
66945;BME280;53853;51.982;5.928;2022-08-11T13:15:19;102010.03;;;29.63;24.22
66945;BME280;53853;51.982;5.928;2022-08-11T13:17:51;102008.19;;;29.69;24.40
66945;BME280;53853;51.982;5.928;2022-08-11T13:20:25;102019.25;;;29.74;24.55
66945;BME280;53853;51.982;5.928;2022-08-11T13:22:58;102008.38;;;29.79;25.25
66945;BME280;53853;51.982;5.928;2022-08-11T13:25:29;102001.53;;;29.81;24.86
66945;BME280;53853;51.982;5.928;2022-08-11T13:28:00;102002.88;;;29.79;24.71
66945;BME280;53853;51.982;5.928;2022-08-11T13:30:32;102005.63;;;29.79;25.21
66945;BME280;53853;51.982;5.928;2022-08-11T13:33:15;101993.91;;;29.84;24.35
66945;BME280;53853;51.982;5.928;2022-08-11T13:35:50;101985.41;;;29.85;24.42
66945;BME280;53853;51.982;5.928;2022-08-11T13:38:23;101989.28;;;29.89;24.65
66945;BME280;53853;51.982;5.928;2022-08-11T13:40:54;101993.47;;;29.92;24.45
66945;BME280;53853;51.982;5.928;2022-08-11T13:43:24;101994.84;;;29.94;24.49
66945;BME280;53853;51.982;5.928;2022-08-11T13:45:55;101988.03;;;29.97;24.02
66945;BME280;53853;51.982;5.928;2022-08-11T13:48:38;101986.72;;;29.99;23.98
66945;BME280;53853;51.982;5.928;2022-08-11T13:51:12;101988.34;;;30.01;24.35
66945;BME280;53853;51.982;5.928;2022-08-11T13:53:55;101985.09;;;30.04;24.48
66945;BME280;53853;51.982;5.928;2022-08-11T13:56:26;101986.78;;;30.05;24.43
66945;BME280;53853;51.982;5.928;2022-08-11T13:58:57;101978.03;;;30.08;24.32
66945;BME280;53853;51.982;5.928;2022-08-11T14:01:30;101978.59;;;30.10;24.54
66945;BME280;53853;51.982;5.928;2022-08-11T14:04:05;101977.00;;;30.14;24.28
66945;BME280;53853;51.982;5.928;2022-08-11T14:06:49;101980.06;;;30.17;24.59
66945;BME280;53853;51.982;5.928;2022-08-11T14:09:24;101974.63;;;30.23;24.40
66945;BME280;53853;51.982;5.928;2022-08-11T14:11:57;101967.56;;;30.27;24.29
66945;BME280;53853;51.982;5.928;2022-08-11T14:14:42;101976.13;;;30.30;24.34
66945;BME280;53853;51.982;5.928;2022-08-11T14:17:14;101963.78;;;30.33;23.90
66945;BME280;53853;51.982;5.928;2022-08-11T14:19:49;101961.59;;;30.35;23.96
66945;BME280;53853;51.982;5.928;2022-08-11T14:22:22;101965.75;;;30.38;24.32
66945;BME280;53853;51.982;5.928;2022-08-11T14:24:49;101961.13;;;30.38;23.58
66945;BME280;53853;51.982;5.928;2022-08-11T14:27:20;101955.38;;;30.40;23.89
66945;BME280;53853;51.982;5.928;2022-08-11T14:29:57;101956.78;;;30.42;24.16
66945;BME280;53853;51.982;5.928;2022-08-11T14:32:28;101942.78;;;30.44;23.58
66945;BME280;53853;51.982;5.928;2022-08-11T14:34:58;101948.59;;;30.47;23.21
66945;BME280;53853;51.982;5.928;2022-08-11T14:37:31;101951.06;;;30.49;23.56
66945;BME280;53853;51.982;5.928;2022-08-11T14:40:01;101948.13;;;30.56;23.59
66945;BME280;53853;51.982;5.928;2022-08-11T14:42:51;101944.28;;;30.57;23.52
66945;BME280;53853;51.982;5.928;2022-08-11T14:45:34;101944.03;;;30.58;23.73
66945;BME280;53853;51.982;5.928;2022-08-11T14:48:16;101948.69;;;30.58;23.43
66945;BME280;53853;51.982;5.928;2022-08-11T14:50:46;101944.03;;;30.58;23.50
66945;BME280;53853;51.982;5.928;2022-08-11T14:53:21;101943.53;;;30.61;23.14